首页
METAR-TAF:

METAR-TAF

机场 :

拉奥罗拉国际机场

瓜地馬拉, 危地马拉

纬度: 14-35N, 经度: 090-31W, 海拔: 1489米

当前天气观测

该预报发布于1小时和6分钟前的03:00 UTC
风速14节,风向
温度 17°C
湿度 94%
气压 1024 hPa
能见度10公里或以上
少量云层高于1400英尺
多云层高于8000英尺

METAR: MGGT 140300Z 36014KT 9999 FEW014 BKN080 17/16 Q1024 A3024

时间: 22:06 (04:06 UTC)

预报

该预报发布于5小时和6分钟前的23:00 UTC
预报有效从14日的 00点(UTC)到 15日的 00点(UTC)
风速16节,风向北转东北
能见度10公里或以上
散云层高于1800英尺
多云层高于9000英尺
几率 30% :
短暂存在
从 14日的 00点(UTC)到 14日的 06点(UTC)
风速12节,风向东北
能見度: 7000
少量云层高于2500英尺, 积雨云.
雷暴, 雨
几率 40% :
短暂存在
从 14日的 10点(UTC)到 14日的 18点(UTC)
能見度: 7000
多云层高于1400英尺
阴天层高于8000英尺
雨, 毛毛雨
成为
从 14日的 16点(UTC)到 14日的 18点(UTC)
风速14节,风向北转东北
多云层高于1800英尺
短暂存在
从 14日的 18点(UTC)到 15日的 00点(UTC)
能見度: 6000
散云层高于2000英尺, 塔状积云.
散云层高于2500英尺, 积雨云.
雷暴, 雨

TAF: MGGT 132300Z 1400/1500 02016KT 9999 SCT018 BKN090 TX23/1420Z TN17/1412Z PROB30 TEMPO 1400/1406 04012KT 7000 TSRA FEW025CB PROB40 TEMPO 1410/1418 7000 RADZ BKN014 OVC080 BECMG 1416/1418 03014KT BKN018 TEMPO 1418/1500 6000 TSRA SCT020TCU SCT025CB

超过4000个机场的气象观测和天气预报(METAR&TAF报告)。

可查询的气象台以黄色和红色小点在地图上表示。

将鼠标移到小点上方,可查看气象台名称。

然后点击查看天气观测和预报。

如需切换地图:点击带黑十字的绿色按钮放大地图;点击带横线的绿色按钮缩小地图;或者点击绿色箭头查看邻近地区的地图。


METAR-TAF: